sensor_id;sensor_type;location;lat;lon;timestamp;P1;durP1;ratioP1;P2;durP2;ratioP2
35909;SDS011;22004;49.120;-0.200;2023-04-03T00:00:57;13.68;;;2.75;;
35909;SDS011;22004;49.120;-0.200;2023-04-03T00:03:22;10.75;;;2.35;;
35909;SDS011;22004;49.120;-0.200;2023-04-03T00:05:48;11.07;;;3.00;;
35909;SDS011;22004;49.120;-0.200;2023-04-03T00:08:13;11.40;;;2.63;;
35909;SDS011;22004;49.120;-0.200;2023-04-03T00:10:39;12.07;;;3.50;;
35909;SDS011;22004;49.120;-0.200;2023-04-03T00:13:04;11.27;;;3.03;;
35909;SDS011;22004;49.120;-0.200;2023-04-03T00:15:31;12.63;;;3.13;;
35909;SDS011;22004;49.120;-0.200;2023-04-03T00:17:57;6.95;;;2.50;;
35909;SDS011;22004;49.120;-0.200;2023-04-03T00:20:22;10.88;;;2.45;;
35909;SDS011;22004;49.120;-0.200;2023-04-03T00:22:48;16.17;;;3.67;;
35909;SDS011;22004;49.120;-0.200;2023-04-03T00:25:13;15.60;;;3.08;;
35909;SDS011;22004;49.120;-0.200;2023-04-03T00:27:39;16.63;;;3.40;;
35909;SDS011;22004;49.120;-0.200;2023-04-03T00:30:06;8.73;;;2.90;;
35909;SDS011;22004;49.120;-0.200;2023-04-03T00:32:34;12.50;;;3.10;;
35909;SDS011;22004;49.120;-0.200;2023-04-03T00:34:59;8.82;;;2.58;;
35909;SDS011;22004;49.120;-0.200;2023-04-03T00:37:25;10.70;;;3.53;;
35909;SDS011;22004;49.120;-0.200;2023-04-03T00:39:50;10.05;;;3.05;;
35909;SDS011;22004;49.120;-0.200;2023-04-03T00:42:16;10.05;;;3.20;;
35909;SDS011;22004;49.120;-0.200;2023-04-03T00:47:08;9.70;;;2.90;;
35909;SDS011;22004;49.120;-0.200;2023-04-03T00:49:35;10.95;;;2.88;;
35909;SDS011;22004;49.120;-0.200;2023-04-03T00:52:03;10.50;;;2.83;;
35909;SDS011;22004;49.120;-0.200;2023-04-03T00:54:31;10.10;;;3.15;;
35909;SDS011;22004;49.120;-0.200;2023-04-03T00:56:57;10.00;;;3.08;;
35909;SDS011;22004;49.120;-0.200;2023-04-03T00:59:34;10.30;;;3.13;;
35909;SDS011;22004;49.120;-0.200;2023-04-03T01:02:03;11.23;;;2.95;;
35909;SDS011;22004;49.120;-0.200;2023-04-03T01:04:30;8.75;;;3.30;;
35909;SDS011;22004;49.120;-0.200;2023-04-03T01:07:02;7.03;;;2.80;;
35909;SDS011;22004;49.120;-0.200;2023-04-03T01:09:31;8.18;;;2.97;;
35909;SDS011;22004;49.120;-0.200;2023-04-03T01:14:42;10.50;;;2.92;;
35909;SDS011;22004;49.120;-0.200;2023-04-03T01:25:35;8.07;;;2.78;;
35909;SDS011;22004;49.120;-0.200;2023-04-03T01:28:04;9.93;;;3.40;;
35909;SDS011;22004;49.120;-0.200;2023-04-03T01:30:32;9.63;;;3.38;;
35909;SDS011;22004;49.120;-0.200;2023-04-03T01:33:00;10.90;;;2.95;;
35909;SDS011;22004;49.120;-0.200;2023-04-03T01:35:26;13.75;;;3.33;;
35909;SDS011;22004;49.120;-0.200;2023-04-03T01:37:51;11.00;;;4.32;;
35909;SDS011;22004;49.120;-0.200;2023-04-03T01:40:17;8.82;;;3.08;;
35909;SDS011;22004;49.120;-0.200;2023-04-03T01:42:42;9.02;;;3.28;;
35909;SDS011;22004;49.120;-0.200;2023-04-03T01:45:08;14.00;;;4.05;;
35909;SDS011;22004;49.120;-0.200;2023-04-03T01:47:34;8.32;;;2.95;;
35909;SDS011;22004;49.120;-0.200;2023-04-03T01:49:59;7.65;;;3.20;;
35909;SDS011;22004;49.120;-0.200;2023-04-03T01:52:24;6.43;;;3.30;;
35909;SDS011;22004;49.120;-0.200;2023-04-03T01:54:50;12.55;;;4.18;;
35909;SDS011;22004;49.120;-0.200;2023-04-03T01:57:15;9.43;;;4.38;;
35909;SDS011;22004;49.120;-0.200;2023-04-03T01:59:41;11.43;;;3.70;;
35909;SDS011;22004;49.120;-0.200;2023-04-03T02:02:07;11.77;;;3.97;;
35909;SDS011;22004;49.120;-0.200;2023-04-03T02:04:32;8.15;;;3.83;;
35909;SDS011;22004;49.120;-0.200;2023-04-03T02:06:58;10.35;;;4.75;;
35909;SDS011;22004;49.120;-0.200;2023-04-03T02:09:23;9.27;;;4.63;;
35909;SDS011;22004;49.120;-0.200;2023-04-03T02:11:48;9.48;;;4.43;;
35909;SDS011;22004;49.120;-0.200;2023-04-03T02:14:14;9.13;;;4.93;;
35909;SDS011;22004;49.120;-0.200;2023-04-03T02:16:39;10.48;;;4.97;;
35909;SDS011;22004;49.120;-0.200;2023-04-03T02:19:05;10.15;;;4.55;;
35909;SDS011;22004;49.120;-0.200;2023-04-03T02:21:30;11.48;;;5.50;;
35909;SDS011;22004;49.120;-0.200;2023-04-03T02:23:55;8.60;;;4.13;;
35909;SDS011;22004;49.120;-0.200;2023-04-03T02:26:21;12.07;;;5.00;;
35909;SDS011;22004;49.120;-0.200;2023-04-03T02:28:46;10.00;;;5.07;;
35909;SDS011;22004;49.120;-0.200;2023-04-03T02:31:12;12.07;;;4.90;;
35909;SDS011;22004;49.120;-0.200;2023-04-03T02:33:37;8.38;;;5.07;;
35909;SDS011;22004;49.120;-0.200;2023-04-03T02:36:06;9.98;;;4.97;;
35909;SDS011;22004;49.120;-0.200;2023-04-03T02:38:32;11.63;;;5.20;;
35909;SDS011;22004;49.120;-0.200;2023-04-03T02:41:06;10.25;;;6.00;;
35909;SDS011;22004;49.120;-0.200;2023-04-03T02:43:33;9.27;;;6.43;;
35909;SDS011;22004;49.120;-0.200;2023-04-03T02:45:59;10.07;;;5.70;;
35909;SDS011;22004;49.120;-0.200;2023-04-03T02:48:24;10.75;;;6.38;;
35909;SDS011;22004;49.120;-0.200;2023-04-03T02:50:50;9.57;;;5.82;;
35909;SDS011;22004;49.120;-0.200;2023-04-03T02:53:16;7.88;;;5.05;;
35909;SDS011;22004;49.120;-0.200;2023-04-03T02:55:42;9.02;;;5.65;;
35909;SDS011;22004;49.120;-0.200;2023-04-03T02:58:08;10.30;;;6.03;;
35909;SDS011;22004;49.120;-0.200;2023-04-03T03:00:33;10.23;;;5.90;;
35909;SDS011;22004;49.120;-0.200;2023-04-03T03:02:59;12.25;;;5.82;;
35909;SDS011;22004;49.120;-0.200;2023-04-03T03:05:25;13.10;;;6.68;;
35909;SDS011;22004;49.120;-0.200;2023-04-03T03:07:51;9.18;;;5.70;;
35909;SDS011;22004;49.120;-0.200;2023-04-03T03:10:16;9.43;;;5.88;;
35909;SDS011;22004;49.120;-0.200;2023-04-03T03:12:41;8.85;;;5.72;;
35909;SDS011;22004;49.120;-0.200;2023-04-03T03:15:07;9.98;;;5.60;;
35909;SDS011;22004;49.120;-0.200;2023-04-03T03:17:33;9.98;;;6.30;;
35909;SDS011;22004;49.120;-0.200;2023-04-03T03:19:58;10.45;;;6.95;;
35909;SDS011;22004;49.120;-0.200;2023-04-03T03:22:23;8.90;;;6.00;;
35909;SDS011;22004;49.120;-0.200;2023-04-03T03:24:49;8.50;;;6.38;;
35909;SDS011;22004;49.120;-0.200;2023-04-03T03:27:15;9.93;;;5.65;;
35909;SDS011;22004;49.120;-0.200;2023-04-03T03:29:41;13.27;;;6.40;;
35909;SDS011;22004;49.120;-0.200;2023-04-03T03:32:07;9.88;;;6.35;;
35909;SDS011;22004;49.120;-0.200;2023-04-03T03:34:32;10.70;;;6.55;;
35909;SDS011;22004;49.120;-0.200;2023-04-03T03:36:58;13.00;;;7.40;;
35909;SDS011;22004;49.120;-0.200;2023-04-03T03:39:23;11.02;;;6.68;;
35909;SDS011;22004;49.120;-0.200;2023-04-03T03:41:48;12.15;;;8.30;;
35909;SDS011;22004;49.120;-0.200;2023-04-03T03:44:14;10.88;;;7.57;;
35909;SDS011;22004;49.120;-0.200;2023-04-03T03:46:40;10.52;;;7.00;;
35909;SDS011;22004;49.120;-0.200;2023-04-03T03:49:05;10.05;;;8.27;;
35909;SDS011;22004;49.120;-0.200;2023-04-03T03:51:31;10.75;;;6.10;;
35909;SDS011;22004;49.120;-0.200;2023-04-03T03:53:56;11.65;;;8.55;;
35909;SDS011;22004;49.120;-0.200;2023-04-03T03:56:21;12.82;;;7.05;;
35909;SDS011;22004;49.120;-0.200;2023-04-03T03:58:47;11.07;;;7.10;;
35909;SDS011;22004;49.120;-0.200;2023-04-03T04:01:12;12.90;;;7.60;;
35909;SDS011;22004;49.120;-0.200;2023-04-03T04:03:38;12.05;;;8.25;;
35909;SDS011;22004;49.120;-0.200;2023-04-03T04:06:03;10.65;;;7.20;;
35909;SDS011;22004;49.120;-0.200;2023-04-03T04:08:29;13.25;;;7.18;;
35909;SDS011;22004;49.120;-0.200;2023-04-03T04:10:54;9.20;;;7.28;;
35909;SDS011;22004;49.120;-0.200;2023-04-03T04:13:20;12.10;;;7.22;;
35909;SDS011;22004;49.120;-0.200;2023-04-03T04:15:45;10.15;;;7.15;;
35909;SDS011;22004;49.120;-0.200;2023-04-03T04:18:11;12.32;;;9.55;;
35909;SDS011;22004;49.120;-0.200;2023-04-03T04:20:36;12.88;;;7.10;;
35909;SDS011;22004;49.120;-0.200;2023-04-03T04:23:01;12.50;;;8.30;;
35909;SDS011;22004;49.120;-0.200;2023-04-03T04:25:27;11.80;;;7.15;;
35909;SDS011;22004;49.120;-0.200;2023-04-03T04:27:52;9.10;;;6.82;;
35909;SDS011;22004;49.120;-0.200;2023-04-03T04:30:18;10.90;;;7.25;;
35909;SDS011;22004;49.120;-0.200;2023-04-03T04:32:43;10.32;;;7.55;;
35909;SDS011;22004;49.120;-0.200;2023-04-03T04:35:08;10.43;;;7.28;;
35909;SDS011;22004;49.120;-0.200;2023-04-03T04:37:34;12.30;;;9.00;;
35909;SDS011;22004;49.120;-0.200;2023-04-03T04:40:00;11.90;;;6.85;;
35909;SDS011;22004;49.120;-0.200;2023-04-03T04:42:25;13.32;;;9.75;;
35909;SDS011;22004;49.120;-0.200;2023-04-03T04:44:51;14.80;;;9.05;;
35909;SDS011;22004;49.120;-0.200;2023-04-03T04:47:17;10.50;;;7.63;;
35909;SDS011;22004;49.120;-0.200;2023-04-03T04:49:42;11.10;;;7.47;;
35909;SDS011;22004;49.120;-0.200;2023-04-03T04:52:08;9.25;;;7.35;;
35909;SDS011;22004;49.120;-0.200;2023-04-03T04:54:33;11.07;;;7.20;;
35909;SDS011;22004;49.120;-0.200;2023-04-03T04:56:58;9.35;;;7.35;;
35909;SDS011;22004;49.120;-0.200;2023-04-03T04:59:24;11.50;;;8.13;;
35909;SDS011;22004;49.120;-0.200;2023-04-03T05:01:49;13.45;;;9.35;;
35909;SDS011;22004;49.120;-0.200;2023-04-03T05:04:15;9.85;;;7.57;;
35909;SDS011;22004;49.120;-0.200;2023-04-03T05:06:40;11.68;;;7.65;;
35909;SDS011;22004;49.120;-0.200;2023-04-03T05:09:06;9.18;;;7.40;;
35909;SDS011;22004;49.120;-0.200;2023-04-03T05:11:31;9.15;;;7.60;;
35909;SDS011;22004;49.120;-0.200;2023-04-03T05:13:57;11.07;;;7.88;;
35909;SDS011;22004;49.120;-0.200;2023-04-03T05:16:22;13.90;;;8.32;;
35909;SDS011;22004;49.120;-0.200;2023-04-03T05:18:48;12.02;;;9.75;;
35909;SDS011;22004;49.120;-0.200;2023-04-03T05:21:13;11.45;;;8.90;;
35909;SDS011;22004;49.120;-0.200;2023-04-03T05:23:39;12.20;;;8.13;;
35909;SDS011;22004;49.120;-0.200;2023-04-03T05:26:05;13.48;;;8.75;;
35909;SDS011;22004;49.120;-0.200;2023-04-03T05:28:30;13.18;;;8.85;;
35909;SDS011;22004;49.120;-0.200;2023-04-03T05:30:56;12.27;;;9.00;;
35909;SDS011;22004;49.120;-0.200;2023-04-03T05:33:23;11.73;;;9.13;;
35909;SDS011;22004;49.120;-0.200;2023-04-03T05:35:49;15.05;;;9.13;;
35909;SDS011;22004;49.120;-0.200;2023-04-03T05:38:14;12.40;;;9.02;;
35909;SDS011;22004;49.120;-0.200;2023-04-03T05:40:40;13.63;;;9.43;;
35909;SDS011;22004;49.120;-0.200;2023-04-03T05:43:05;10.52;;;8.80;;
35909;SDS011;22004;49.120;-0.200;2023-04-03T05:45:30;10.80;;;9.15;;
35909;SDS011;22004;49.120;-0.200;2023-04-03T05:47:56;12.43;;;9.35;;
35909;SDS011;22004;49.120;-0.200;2023-04-03T05:50:21;13.50;;;9.30;;
35909;SDS011;22004;49.120;-0.200;2023-04-03T05:52:48;12.52;;;9.48;;
35909;SDS011;22004;49.120;-0.200;2023-04-03T05:55:16;13.10;;;9.15;;
35909;SDS011;22004;49.120;-0.200;2023-04-03T05:57:42;10.95;;;9.15;;
35909;SDS011;22004;49.120;-0.200;2023-04-03T06:00:08;12.10;;;9.38;;
35909;SDS011;22004;49.120;-0.200;2023-04-03T06:02:37;12.88;;;9.25;;
35909;SDS011;22004;49.120;-0.200;2023-04-03T06:05:03;12.77;;;9.50;;
35909;SDS011;22004;49.120;-0.200;2023-04-03T06:07:28;12.23;;;9.15;;
35909;SDS011;22004;49.120;-0.200;2023-04-03T06:09:54;11.80;;;9.10;;
35909;SDS011;22004;49.120;-0.200;2023-04-03T06:12:21;11.85;;;9.32;;
35909;SDS011;22004;49.120;-0.200;2023-04-03T06:14:47;15.60;;;9.80;;
35909;SDS011;22004;49.120;-0.200;2023-04-03T06:17:13;11.73;;;9.25;;
35909;SDS011;22004;49.120;-0.200;2023-04-03T06:19:40;13.85;;;9.57;;
35909;SDS011;22004;49.120;-0.200;2023-04-03T06:22:05;11.93;;;9.15;;
35909;SDS011;22004;49.120;-0.200;2023-04-03T06:24:31;13.52;;;9.95;;
35909;SDS011;22004;49.120;-0.200;2023-04-03T06:26:57;12.90;;;9.25;;
35909;SDS011;22004;49.120;-0.200;2023-04-03T06:29:23;13.38;;;9.90;;
35909;SDS011;22004;49.120;-0.200;2023-04-03T06:31:49;11.95;;;9.90;;
35909;SDS011;22004;49.120;-0.200;2023-04-03T06:34:15;12.70;;;9.48;;
35909;SDS011;22004;49.120;-0.200;2023-04-03T06:36:41;13.80;;;10.02;;
35909;SDS011;22004;49.120;-0.200;2023-04-03T06:39:09;13.25;;;9.13;;
35909;SDS011;22004;49.120;-0.200;2023-04-03T06:41:38;12.77;;;8.93;;
35909;SDS011;22004;49.120;-0.200;2023-04-03T06:44:03;15.60;;;11.02;;
35909;SDS011;22004;49.120;-0.200;2023-04-03T06:46:29;11.75;;;9.60;;
35909;SDS011;22004;49.120;-0.200;2023-04-03T06:48:54;12.73;;;9.00;;
35909;SDS011;22004;49.120;-0.200;2023-04-03T06:51:24;14.00;;;9.02;;
35909;SDS011;22004;49.120;-0.200;2023-04-03T06:53:52;14.70;;;9.48;;
35909;SDS011;22004;49.120;-0.200;2023-04-03T06:56:18;13.77;;;9.00;;
35909;SDS011;22004;49.120;-0.200;2023-04-03T06:58:44;14.50;;;10.05;;
35909;SDS011;22004;49.120;-0.200;2023-04-03T07:01:12;13.75;;;8.88;;
35909;SDS011;22004;49.120;-0.200;2023-04-03T07:03:41;13.93;;;9.05;;
35909;SDS011;22004;49.120;-0.200;2023-04-03T07:06:08;15.20;;;9.77;;
35909;SDS011;22004;49.120;-0.200;2023-04-03T07:08:36;11.63;;;8.50;;
35909;SDS011;22004;49.120;-0.200;2023-04-03T07:11:02;11.13;;;9.30;;
35909;SDS011;22004;49.120;-0.200;2023-04-03T07:13:28;11.98;;;9.20;;
35909;SDS011;22004;49.120;-0.200;2023-04-03T07:15:53;10.70;;;8.38;;
35909;SDS011;22004;49.120;-0.200;2023-04-03T07:18:19;12.15;;;9.25;;
35909;SDS011;22004;49.120;-0.200;2023-04-03T07:20:44;11.65;;;9.35;;
35909;SDS011;22004;49.120;-0.200;2023-04-03T07:23:10;12.27;;;8.75;;
35909;SDS011;22004;49.120;-0.200;2023-04-03T07:25:36;12.95;;;9.15;;
35909;SDS011;22004;49.120;-0.200;2023-04-03T07:28:02;11.35;;;8.77;;
35909;SDS011;22004;49.120;-0.200;2023-04-03T07:30:28;11.05;;;8.10;;
35909;SDS011;22004;49.120;-0.200;2023-04-03T07:32:54;10.88;;;8.27;;
35909;SDS011;22004;49.120;-0.200;2023-04-03T07:35:20;10.38;;;8.50;;
35909;SDS011;22004;49.120;-0.200;2023-04-03T07:37:45;11.52;;;7.70;;
35909;SDS011;22004;49.120;-0.200;2023-04-03T07:40:11;11.95;;;8.70;;
35909;SDS011;22004;49.120;-0.200;2023-04-03T07:42:36;11.93;;;8.90;;
35909;SDS011;22004;49.120;-0.200;2023-04-03T07:45:02;12.65;;;8.40;;
35909;SDS011;22004;49.120;-0.200;2023-04-03T07:47:29;11.88;;;8.20;;
35909;SDS011;22004;49.120;-0.200;2023-04-03T07:49:55;11.43;;;7.70;;
35909;SDS011;22004;49.120;-0.200;2023-04-03T07:52:22;12.95;;;8.93;;
35909;SDS011;22004;49.120;-0.200;2023-04-03T07:54:47;16.42;;;9.18;;
35909;SDS011;22004;49.120;-0.200;2023-04-03T07:57:13;13.15;;;9.80;;
35909;SDS011;22004;49.120;-0.200;2023-04-03T07:59:38;12.43;;;9.18;;
35909;SDS011;22004;49.120;-0.200;2023-04-03T08:02:07;12.75;;;8.93;;
35909;SDS011;22004;49.120;-0.200;2023-04-03T08:04:34;14.50;;;8.40;;
35909;SDS011;22004;49.120;-0.200;2023-04-03T08:06:59;12.82;;;8.25;;
35909;SDS011;22004;49.120;-0.200;2023-04-03T08:09:25;13.15;;;8.65;;
35909;SDS011;22004;49.120;-0.200;2023-04-03T08:11:50;10.70;;;7.88;;
35909;SDS011;22004;49.120;-0.200;2023-04-03T08:14:18;15.82;;;10.43;;
35909;SDS011;22004;49.120;-0.200;2023-04-03T08:16:44;12.10;;;9.48;;
35909;SDS011;22004;49.120;-0.200;2023-04-03T08:19:10;11.88;;;8.30;;
35909;SDS011;22004;49.120;-0.200;2023-04-03T08:21:37;11.25;;;7.97;;
35909;SDS011;22004;49.120;-0.200;2023-04-03T08:24:06;15.15;;;9.88;;
35909;SDS011;22004;49.120;-0.200;2023-04-03T08:26:32;12.55;;;9.13;;
35909;SDS011;22004;49.120;-0.200;2023-04-03T08:28:58;16.35;;;9.85;;
35909;SDS011;22004;49.120;-0.200;2023-04-03T08:31:23;15.70;;;9.52;;
35909;SDS011;22004;49.120;-0.200;2023-04-03T08:33:49;14.25;;;10.05;;
35909;SDS011;22004;49.120;-0.200;2023-04-03T08:36:21;14.25;;;9.15;;
35909;SDS011;22004;49.120;-0.200;2023-04-03T08:38:49;9.82;;;7.85;;
35909;SDS011;22004;49.120;-0.200;2023-04-03T08:46:42;19.77;;;11.95;;
35909;SDS011;22004;49.120;-0.200;2023-04-03T08:49:31;13.88;;;8.40;;
35909;SDS011;22004;49.120;-0.200;2023-04-03T08:52:01;14.32;;;9.55;;
35909;SDS011;22004;49.120;-0.200;2023-04-03T08:54:32;15.57;;;10.65;;
35909;SDS011;22004;49.120;-0.200;2023-04-03T08:56:59;12.02;;;9.35;;
35909;SDS011;22004;49.120;-0.200;2023-04-03T08:59:29;13.90;;;9.55;;
35909;SDS011;22004;49.120;-0.200;2023-04-03T09:01:59;15.20;;;10.93;;
35909;SDS011;22004;49.120;-0.200;2023-04-03T09:04:30;17.65;;;11.40;;
35909;SDS011;22004;49.120;-0.200;2023-04-03T09:06:58;14.13;;;9.77;;
35909;SDS011;22004;49.120;-0.200;2023-04-03T09:09:36;14.02;;;9.32;;
35909;SDS011;22004;49.120;-0.200;2023-04-03T09:14:57;14.95;;;10.57;;
35909;SDS011;22004;49.120;-0.200;2023-04-03T09:26:11;18.08;;;11.25;;
35909;SDS011;22004;49.120;-0.200;2023-04-03T09:28:41;13.60;;;10.05;;
35909;SDS011;22004;49.120;-0.200;2023-04-03T09:31:16;13.52;;;9.52;;
35909;SDS011;22004;49.120;-0.200;2023-04-03T09:33:45;15.30;;;11.13;;
35909;SDS011;22004;49.120;-0.200;2023-04-03T09:36:12;17.55;;;10.45;;
35909;SDS011;22004;49.120;-0.200;2023-04-03T09:38:38;16.20;;;10.73;;
35909;SDS011;22004;49.120;-0.200;2023-04-03T09:41:10;14.13;;;10.82;;
35909;SDS011;22004;49.120;-0.200;2023-04-03T09:43:40;15.27;;;11.98;;
35909;SDS011;22004;49.120;-0.200;2023-04-03T09:46:30;12.30;;;9.30;;
35909;SDS011;22004;49.120;-0.200;2023-04-03T09:49:01;16.92;;;12.23;;
35909;SDS011;22004;49.120;-0.200;2023-04-03T09:51:29;12.98;;;9.40;;
35909;SDS011;22004;49.120;-0.200;2023-04-03T09:53:56;17.13;;;9.98;;
35909;SDS011;22004;49.120;-0.200;2023-04-03T09:56:23;13.55;;;8.75;;
35909;SDS011;22004;49.120;-0.200;2023-04-03T10:01:30;15.48;;;11.18;;
35909;SDS011;22004;49.120;-0.200;2023-04-03T10:07:08;14.13;;;10.88;;
35909;SDS011;22004;49.120;-0.200;2023-04-03T10:09:58;12.45;;;8.98;;
35909;SDS011;22004;49.120;-0.200;2023-04-03T10:12:40;11.32;;;8.13;;
35909;SDS011;22004;49.120;-0.200;2023-04-03T10:15:39;14.68;;;11.25;;
35909;SDS011;22004;49.120;-0.200;2023-04-03T10:20:57;15.60;;;9.88;;
35909;SDS011;22004;49.120;-0.200;2023-04-03T10:23:40;17.40;;;12.50;;
35909;SDS011;22004;49.120;-0.200;2023-04-03T10:29:02;15.30;;;10.68;;
35909;SDS011;22004;49.120;-0.200;2023-04-03T10:31:46;19.85;;;10.98;;
35909;SDS011;22004;49.120;-0.200;2023-04-03T10:34:30;14.38;;;10.23;;
35909;SDS011;22004;49.120;-0.200;2023-04-03T10:37:05;17.23;;;10.45;;
35909;SDS011;22004;49.120;-0.200;2023-04-03T10:39:57;16.63;;;11.60;;
35909;SDS011;22004;49.120;-0.200;2023-04-03T10:42:29;17.77;;;11.30;;
35909;SDS011;22004;49.120;-0.200;2023-04-03T10:58:01;13.27;;;9.25;;
35909;SDS011;22004;49.120;-0.200;2023-04-03T11:00:39;18.60;;;10.95;;
35909;SDS011;22004;49.120;-0.200;2023-04-03T11:03:11;13.27;;;10.10;;
35909;SDS011;22004;49.120;-0.200;2023-04-03T11:05:47;14.15;;;10.07;;
35909;SDS011;22004;49.120;-0.200;2023-04-03T11:08:36;17.13;;;11.02;;
35909;SDS011;22004;49.120;-0.200;2023-04-03T11:11:12;17.65;;;11.63;;
35909;SDS011;22004;49.120;-0.200;2023-04-03T11:13:47;14.57;;;10.60;;
35909;SDS011;22004;49.120;-0.200;2023-04-03T11:16:21;13.23;;;9.55;;
35909;SDS011;22004;49.120;-0.200;2023-04-03T11:18:52;13.43;;;8.65;;
35909;SDS011;22004;49.120;-0.200;2023-04-03T11:21:35;17.67;;;10.80;;
35909;SDS011;22004;49.120;-0.200;2023-04-03T11:24:05;17.52;;;11.35;;
35909;SDS011;22004;49.120;-0.200;2023-04-03T11:26:45;15.93;;;11.45;;
35909;SDS011;22004;49.120;-0.200;2023-04-03T11:29:13;21.02;;;12.38;;
35909;SDS011;22004;49.120;-0.200;2023-04-03T11:31:54;18.17;;;12.32;;
35909;SDS011;22004;49.120;-0.200;2023-04-03T11:37:12;18.13;;;11.98;;
35909;SDS011;22004;49.120;-0.200;2023-04-03T11:39:58;17.08;;;12.55;;
35909;SDS011;22004;49.120;-0.200;2023-04-03T11:47:52;15.82;;;9.32;;
35909;SDS011;22004;49.120;-0.200;2023-04-03T11:53:25;14.48;;;10.52;;
35909;SDS011;22004;49.120;-0.200;2023-04-03T11:55:55;13.35;;;9.85;;
35909;SDS011;22004;49.120;-0.200;2023-04-03T11:58:23;15.90;;;11.02;;
35909;SDS011;22004;49.120;-0.200;2023-04-03T12:00:52;16.45;;;10.52;;
35909;SDS011;22004;49.120;-0.200;2023-04-03T12:05:48;17.42;;;12.18;;
35909;SDS011;22004;49.120;-0.200;2023-04-03T12:13:33;15.02;;;9.77;;
35909;SDS011;22004;49.120;-0.200;2023-04-03T12:16:00;17.98;;;12.38;;
35909;SDS011;22004;49.120;-0.200;2023-04-03T12:21:12;16.50;;;11.55;;
35909;SDS011;22004;49.120;-0.200;2023-04-03T12:26:30;17.88;;;11.98;;
35909;SDS011;22004;49.120;-0.200;2023-04-03T12:29:01;15.85;;;10.75;;
35909;SDS011;22004;49.120;-0.200;2023-04-03T12:31:45;20.77;;;11.75;;
35909;SDS011;22004;49.120;-0.200;2023-04-03T12:34:33;17.95;;;11.23;;
35909;SDS011;22004;49.120;-0.200;2023-04-03T12:42:55;13.65;;;9.63;;
35909;SDS011;22004;49.120;-0.200;2023-04-03T12:45:22;15.05;;;10.32;;
35909;SDS011;22004;49.120;-0.200;2023-04-03T12:47:49;15.90;;;11.25;;
35909;SDS011;22004;49.120;-0.200;2023-04-03T12:50:24;13.93;;;10.02;;
35909;SDS011;22004;49.120;-0.200;2023-04-03T12:55:28;20.20;;;12.43;;
35909;SDS011;22004;49.120;-0.200;2023-04-03T12:57:54;21.63;;;13.25;;
35909;SDS011;22004;49.120;-0.200;2023-04-03T13:02:46;25.58;;;13.07;;
35909;SDS011;22004;49.120;-0.200;2023-04-03T13:05:16;13.80;;;9.85;;
35909;SDS011;22004;49.120;-0.200;2023-04-03T13:07:43;18.15;;;10.43;;
35909;SDS011;22004;49.120;-0.200;2023-04-03T13:10:16;13.77;;;9.93;;
35909;SDS011;22004;49.120;-0.200;2023-04-03T13:12:50;14.85;;;10.27;;
35909;SDS011;22004;49.120;-0.200;2023-04-03T13:15:20;12.43;;;8.38;;
35909;SDS011;22004;49.120;-0.200;2023-04-03T13:18:23;19.13;;;11.82;;
35909;SDS011;22004;49.120;-0.200;2023-04-03T13:21:02;14.65;;;9.60;;
35909;SDS011;22004;49.120;-0.200;2023-04-03T13:23:31;15.65;;;9.95;;
35909;SDS011;22004;49.120;-0.200;2023-04-03T13:25:59;14.35;;;10.60;;
35909;SDS011;22004;49.120;-0.200;2023-04-03T13:28:28;17.27;;;11.10;;
35909;SDS011;22004;49.120;-0.200;2023-04-03T13:33:53;17.50;;;11.80;;
35909;SDS011;22004;49.120;-0.200;2023-04-03T13:36:23;20.65;;;12.68;;
35909;SDS011;22004;49.120;-0.200;2023-04-03T13:39:38;19.33;;;11.88;;
35909;SDS011;22004;49.120;-0.200;2023-04-03T13:41:48;17.15;;;12.07;;
35909;SDS011;22004;49.120;-0.200;2023-04-03T13:46:50;18.77;;;13.07;;
35909;SDS011;22004;49.120;-0.200;2023-04-03T13:49:34;14.13;;;10.50;;
35909;SDS011;22004;49.120;-0.200;2023-04-03T13:54:49;18.05;;;10.52;;
35909;SDS011;22004;49.120;-0.200;2023-04-03T13:57:19;16.10;;;12.40;;
35909;SDS011;22004;49.120;-0.200;2023-04-03T13:59:45;17.35;;;10.90;;
35909;SDS011;22004;49.120;-0.200;2023-04-03T14:02:30;18.40;;;11.13;;
35909;SDS011;22004;49.120;-0.200;2023-04-03T14:04:58;21.42;;;13.73;;
35909;SDS011;22004;49.120;-0.200;2023-04-03T14:07:26;19.38;;;12.75;;
35909;SDS011;22004;49.120;-0.200;2023-04-03T14:09:54;20.52;;;13.93;;
35909;SDS011;22004;49.120;-0.200;2023-04-03T14:12:27;23.65;;;14.13;;
35909;SDS011;22004;49.120;-0.200;2023-04-03T14:14:56;20.00;;;14.63;;
35909;SDS011;22004;49.120;-0.200;2023-04-03T14:17:23;14.57;;;12.07;;
35909;SDS011;22004;49.120;-0.200;2023-04-03T14:19:50;21.02;;;12.80;;
35909;SDS011;22004;49.120;-0.200;2023-04-03T14:22:21;21.30;;;15.80;;
35909;SDS011;22004;49.120;-0.200;2023-04-03T14:24:48;22.83;;;15.55;;
35909;SDS011;22004;49.120;-0.200;2023-04-03T14:27:25;23.33;;;15.00;;
35909;SDS011;22004;49.120;-0.200;2023-04-03T14:29:53;19.17;;;13.85;;
35909;SDS011;22004;49.120;-0.200;2023-04-03T14:32:21;21.83;;;15.95;;
35909;SDS011;22004;49.120;-0.200;2023-04-03T14:34:48;19.75;;;13.77;;
35909;SDS011;22004;49.120;-0.200;2023-04-03T14:37:19;22.13;;;15.57;;
35909;SDS011;22004;49.120;-0.200;2023-04-03T14:39:49;20.73;;;14.60;;
35909;SDS011;22004;49.120;-0.200;2023-04-03T14:42:16;23.08;;;14.75;;
35909;SDS011;22004;49.120;-0.200;2023-04-03T14:44:44;20.70;;;14.60;;
35909;SDS011;22004;49.120;-0.200;2023-04-03T14:47:13;19.60;;;13.40;;
35909;SDS011;22004;49.120;-0.200;2023-04-03T14:49:42;24.30;;;15.82;;
35909;SDS011;22004;49.120;-0.200;2023-04-03T14:52:16;19.92;;;14.32;;
35909;SDS011;22004;49.120;-0.200;2023-04-03T14:54:48;18.70;;;13.45;;
35909;SDS011;22004;49.120;-0.200;2023-04-03T14:57:15;20.90;;;12.32;;
35909;SDS011;22004;49.120;-0.200;2023-04-03T14:59:42;21.73;;;14.38;;
35909;SDS011;22004;49.120;-0.200;2023-04-03T15:02:20;24.83;;;14.88;;
35909;SDS011;22004;49.120;-0.200;2023-04-03T15:04:51;16.92;;;13.25;;
35909;SDS011;22004;49.120;-0.200;2023-04-03T15:07:16;17.30;;;11.93;;
35909;SDS011;22004;49.120;-0.200;2023-04-03T15:09:42;17.15;;;12.70;;
35909;SDS011;22004;49.120;-0.200;2023-04-03T15:12:08;18.20;;;11.60;;
35909;SDS011;22004;49.120;-0.200;2023-04-03T15:14:34;21.60;;;14.48;;
35909;SDS011;22004;49.120;-0.200;2023-04-03T15:17:00;19.35;;;12.80;;
35909;SDS011;22004;49.120;-0.200;2023-04-03T15:19:25;14.65;;;11.20;;
35909;SDS011;22004;49.120;-0.200;2023-04-03T15:21:51;20.15;;;13.38;;
35909;SDS011;22004;49.120;-0.200;2023-04-03T15:24:16;17.05;;;13.65;;
35909;SDS011;22004;49.120;-0.200;2023-04-03T15:26:42;16.10;;;12.52;;
35909;SDS011;22004;49.120;-0.200;2023-04-03T15:29:07;20.08;;;14.02;;
35909;SDS011;22004;49.120;-0.200;2023-04-03T15:31:33;21.77;;;13.43;;
35909;SDS011;22004;49.120;-0.200;2023-04-03T15:33:58;17.15;;;10.93;;
35909;SDS011;22004;49.120;-0.200;2023-04-03T15:36:24;15.10;;;12.15;;
35909;SDS011;22004;49.120;-0.200;2023-04-03T15:38:49;15.90;;;11.98;;
35909;SDS011;22004;49.120;-0.200;2023-04-03T15:41:15;15.45;;;11.68;;
35909;SDS011;22004;49.120;-0.200;2023-04-03T15:43:40;20.42;;;11.82;;
35909;SDS011;22004;49.120;-0.200;2023-04-03T15:46:06;17.48;;;11.70;;
35909;SDS011;22004;49.120;-0.200;2023-04-03T15:48:32;15.38;;;11.50;;
35909;SDS011;22004;49.120;-0.200;2023-04-03T15:50:57;20.98;;;12.27;;
35909;SDS011;22004;49.120;-0.200;2023-04-03T15:53:23;17.80;;;11.13;;
35909;SDS011;22004;49.120;-0.200;2023-04-03T15:55:48;14.52;;;11.55;;
35909;SDS011;22004;49.120;-0.200;2023-04-03T15:58:13;14.10;;;10.32;;
35909;SDS011;22004;49.120;-0.200;2023-04-03T16:00:39;15.75;;;10.00;;
35909;SDS011;22004;49.120;-0.200;2023-04-03T16:03:06;15.43;;;10.00;;